Terminal Aerodrome Forecast
Issued by NWS

Current Version | Previous Version | Text Only | Print | Product List | Glossary On
Versions: 1 2 3 4 5 6 7 8 9 10 11 12 13 14 15 16
000
FTUS43 KEAX 230520
TAFMKC
TAF
KMKC 230520Z 2306/2406 00000KT P6SM SKC
     FM231200 07009KT P6SM BKN200
     FM231500 08011KT P6SM VCSH BKN080
     FM232000 11013KT P6SM BKN060
     FM240200 14011KT P6SM SCT080=

USA.gov is the U.S. government's official web portal to all federal, state and local government web resources and services.